• Join FlightAware (Why Join?)
  • Login
  • US Flag 
01:32PM EDT


 

Airport Tracker/Info


-or-


 

Live Flight TrackerFlight Track Log ✈ ASQ5740 ✈ 04-Jun-2013 ✈ KCHS - KIAD

Flight Track Log - Related Links

Times and Time Zones

All times are in EDT time to prevent confusion due to time zone crossing. See the ASQ5740 flight status page for this flight to view local times or setup timezone preferences in your user account.

Time Position Orientation Groundspeed Altitude Reporting Facility
EDT Latitude Longitude Course Direction KTS MPH feet Rate Location/Type
02:53PM 32.8528 -80.0489 13° North 165 190 1,400  Level Jacksonville Center
02:54PM 32.8742 -79.9889 67° East 221 254 3,100 1,860 Climbing Jacksonville Center
02:55PM 32.9378 -79.9322 37° Northeast 264 304 5,200 2,160 Climbing Jacksonville Center
02:56PM 33.2628 -79.9241 North  Level FlightAware Approximate
02:56PM 32.9942 -79.9331 359° North 281 323 7,500  Level Jacksonville Center
02:57PM 33.3556 -79.8888 23° Northeast  Level FlightAware Approximate
02:57PM 33.0636 -79.9653 339° North 287 330 9,700  Level Jacksonville Center
02:58PM 33.4515 -79.8662 13° North  Level FlightAware Approximate
02:58PM 33.1381 -80.0225 327° Northwest 317 365 10,000  Level Jacksonville Center
02:59PM 33.2189 -80.0869 326° Northwest 338 389 11,800 1,800 Climbing Jacksonville Center
03:00PM 33.3014 -80.1414 331° Northwest 344 396 13,600 1,620 Climbing Jacksonville Center
03:01PM 33.3925 -80.1114 15° North 317 365 15,100 1,380 Climbing Jacksonville Center
03:02PM 33.4875 -80.0608 24° Northeast 327 376 16,400 1,200 Climbing Jacksonville Center
03:03PM 33.5822 -80.0081 25° Northeast 349 402 17,500 1,080 Climbing Jacksonville Center
03:04PM 33.6814 -79.9575 23° Northeast 366 421 18,600 1,080 Climbing Jacksonville Center
03:05PM 33.7561 -79.8625 47° Northeast 383 441 19,700 1,020 Climbing Jacksonville Center
03:06PM 33.8203 -79.7553 54° Northeast 378 435 20,700 600 Climbing Jacksonville Center
03:07PM 33.8886 -79.6478 53° Northeast 395 455 21,000 300 Climbing Jacksonville Center
03:08PM 33.9803 -79.5642 37° Northeast 403 464 21,400 600 Climbing Jacksonville Center
03:09PM 34.0917 -79.5150 20° North 403 464 22,300 780 Climbing Jacksonville Center
03:10PM 34.2028 -79.4603 22° Northeast 409 471 23,000 720 Climbing Jacksonville Center
03:12PM 34.3917 -79.3719 21° North 408 470 24,300 720 Climbing Washington Center
03:13PM 34.4978 -79.3189 22° Northeast 408 470 25,000 600 Climbing Washington Center
03:14PM 34.6097 -79.2686 20° North 414 476 25,600 540 Climbing Washington Center
03:15PM 34.7242 -79.2156 21° North 419 482 26,100 480 Climbing Washington Center
03:16PM 34.8383 -79.1600 22° Northeast 424 488 26,600 480 Climbing Washington Center
03:17PM 34.9528 -79.1067 21° North 424 488 27,100 480 Climbing Washington Center
03:18PM 35.0669 -79.0508 22° Northeast 434 499 27,600 480 Climbing Washington Center
03:19PM 35.1811 -78.9972 21° North 434 499 28,100 480 Climbing Washington Center
03:20PM 35.2953 -78.9436 21° North 434 499 28,600 420 Climbing Washington Center
03:21PM 35.4117 -78.8872 22° Northeast 439 505 29,000 180 Climbing Washington Center
03:22PM 35.5281 -78.8333 21° North 439 505 29,000 -120 Level Washington Center
03:23PM 35.6486 -78.7744 22° Northeast 444 511 28,800 -660 Descending Washington Center
03:24PM 35.7711 -78.7128 22° Northeast 458 527 27,700 -900 Descending Washington Center
03:25PM 35.9000 -78.6511 21° North 477 549 27,000 -360 Descending Washington Center
03:26PM 36.0247 -78.5867 23° Northeast 482 555 27,000  Level Washington Center
03:27PM 36.1514 -78.5244 22° Northeast 482 555 27,000  Level Washington Center
03:28PM 36.2739 -78.4647 21° North 477 549 27,000  Level Washington Center
03:29PM 36.3986 -78.4022 22° Northeast 477 549 27,000  Level Washington Center
03:30PM 36.5189 -78.3419 22° Northeast 477 549 27,000  Level Washington Center
03:31PM 36.6392 -78.2839 21° North 477 549 27,000  Level Washington Center
03:32PM 36.7553 -78.2206 24° Northeast 464 534 27,000  Level Washington Center
03:33PM 36.8756 -78.1625 21° North 459 528 27,000 -300 Level Washington Center
03:34PM 36.9956 -78.0989 23° Northeast 459 528 26,500 -840 Descending Washington Center
03:35PM 37.1136 -78.0400 22° Northeast 459 528 25,400 -960 Descending Washington Center
03:36PM 37.2169 -77.9886 22° Northeast 424 488 24,700 -840 Descending Washington Center
03:37PM 37.3161 -77.9369 23° Northeast 395 455 23,800 -900 Descending Washington Center
03:38PM 37.4172 -77.8850 22° Northeast 390 449 22,900 -960 Descending Washington Center
03:39PM 37.5161 -77.8331 23° Northeast 385 443 22,000 -960 Descending Washington Center
03:40PM 37.6131 -77.7783 24° Northeast 378 435 21,100 -1,080 Descending Washington Center
03:41PM 37.7081 -77.7233 25° Northeast 373 429 19,900 -1,680 Descending Washington Center
03:42PM 37.8028 -77.6681 25° Northeast 368 423 17,800 -1,740 Descending Washington Center
03:43PM 37.8744 -77.6253 25° Northeast 363 418 16,400 -1,920 Descending Washington Center
03:44PM 37.9797 -77.5622 25° Northeast 351 404 14,100 -2,100 Descending Washington Center
03:45PM 38.0533 -77.5247 22° Northeast 335 386 12,300 -1,860 Descending Washington Center
03:46PM 38.1356 -77.4767 25° Northeast 320 368 10,400 -1,260 Descending Washington Center
03:47PM 38.2069 -77.4467 18° North 298 343 9,800 -1,020 Descending Washington Center
03:48PM 38.2839 -77.4486 359° North 268 308 8,500 -1,200 Descending Washington Center
03:49PM 38.3592 -77.4506 359° North 268 308 7,500 -780 Descending Washington Center
03:50PM 38.4342 -77.4550 357° North 268 308 7,000 -300 Descending Washington Center
03:51PM 38.5092 -77.4569 359° North 273 314 7,000  Level Washington Center
03:52PM 38.5819 -77.4614 357° North 266 306 7,000 -600 Level Washington Center
03:53PM 38.6383 -77.4656 357° North 232 267 5,900 -1,020 Descending Washington Center
03:54PM 38.6925 -77.4669 359° North 213 245 5,000 -660 Descending Washington Center
03:55PM 38.7500 -77.4667 360° North 195 224 4,600 -960 Descending Potomac TRACON
03:56PM 38.8167 -77.4667 360° North 183 211 3,000 -1,620 Descending Potomac TRACON